Time;durP1;ratioP1;P1;durP2;ratioP2;P2;SDS_P1;SDS_P2;PMS_P1;PMS_P2;Temp;Humidity;BMP_temperature;BMP_pressure;BME280_temperature;BME280_humidity;BME280_pressure;Samples;Min_cycle;Max_cycle;Signal;HPM_P1;HPM_P2
2022/04/02 00:00:45;;;;;;;15.05;13.48;;;;;;;2.81;69.28;95352.34;5003617;28;20428;-81
2022/04/02 00:03:14;;;;;;;15.55;13.80;;;;;;;2.74;69.50;95343.69;5003077;28;20129;-81
2022/04/02 00:05:42;;;;;;;14.15;12.68;;;;;;;2.67;69.63;95345.31;5002519;28;20054;-80
2022/04/02 00:08:10;;;;;;;16.50;14.00;;;;;;;2.66;70.02;95348.84;5002421;28;20501;-81
2022/04/02 00:10:38;;;;;;;16.50;14.60;;;;;;;2.63;69.53;95354.34;5019991;28;20044;-79
2022/04/02 00:13:05;;;;;;;15.60;13.38;;;;;;;2.59;70.35;95347.91;5020726;28;20030;-81
2022/04/02 00:15:33;;;;;;;15.75;14.05;;;;;;;2.55;70.02;95352.56;5008098;28;20046;-81
2022/04/02 00:18:01;;;;;;;17.27;14.43;;;;;;;2.51;70.24;95353.03;5002958;28;20134;-81
2022/04/02 00:20:30;;;;;;;15.57;13.98;;;;;;;2.44;70.35;95351.09;5001469;28;20545;-81
2022/04/02 00:25:43;;;;;;;16.08;14.07;;;;;;;2.38;70.25;95345.81;5001094;28;20089;-81
2022/04/02 00:28:10;;;;;;;15.88;13.45;;;;;;;2.34;70.19;95355.63;5001871;28;20050;-81
2022/04/02 00:30:39;;;;;;;16.27;13.55;;;;;;;2.32;70.22;95346.44;5002562;28;20061;-81
2022/04/02 00:33:07;;;;;;;17.50;14.43;;;;;;;2.27;70.51;95349.50;5001810;28;20050;-81
2022/04/02 00:35:36;;;;;;;16.35;13.57;;;;;;;2.23;70.85;95348.22;5001260;28;20050;-81
2022/04/02 00:38:04;;;;;;;16.92;14.02;;;;;;;2.24;70.62;95348.06;5000935;28;20054;-81
2022/04/02 00:40:31;;;;;;;16.65;13.95;;;;;;;2.21;70.45;95342.44;5001524;28;20046;-80
2022/04/02 00:42:59;;;;;;;17.02;14.73;;;;;;;2.19;70.56;95337.47;5001902;28;20417;-81
2022/04/02 00:45:28;;;;;;;16.95;14.48;;;;;;;2.18;70.67;95340.19;5002537;28;20050;-80
2022/04/02 00:47:56;;;;;;;18.42;14.60;;;;;;;2.17;70.87;95339.38;5002453;28;20078;-82
2022/04/02 00:50:23;;;;;;;17.08;14.48;;;;;;;2.18;70.77;95345.31;5002426;28;20049;-81
2022/04/02 00:52:52;;;;;;;16.70;13.90;;;;;;;2.16;71.14;95342.91;5002267;28;20057;-81
2022/04/02 00:55:20;;;;;;;19.35;15.20;;;;;;;2.13;70.57;95353.53;5001585;28;20053;-80
2022/04/02 00:57:49;;;;;;;18.13;15.60;;;;;;;2.12;71.28;95351.09;5007220;28;20265;-81
2022/04/02 01:00:17;;;;;;;17.13;13.20;;;;;;;2.13;71.51;95357.88;5001565;28;20051;-80
2022/04/02 01:02:45;;;;;;;19.55;13.70;;;;;;;2.11;71.00;95355.47;5001505;28;20141;-81
2022/04/02 01:05:12;;;;;;;15.65;13.68;;;;;;;2.05;70.91;95349.16;5002117;28;20074;-81
2022/04/02 01:07:40;;;;;;;17.00;14.38;;;;;;;2.01;71.14;95349.66;5000985;28;20051;-81
2022/04/02 01:10:09;;;;;;;16.70;13.57;;;;;;;1.99;71.58;95354.16;5001388;28;20373;-81
2022/04/02 01:12:37;;;;;;;16.58;13.50;;;;;;;1.97;71.26;95353.53;5018370;22;20542;-79
2022/04/02 01:15:05;;;;;;;17.35;13.75;;;;;;;1.97;71.41;95354.31;4995579;28;20051;-80
2022/04/02 01:17:33;;;;;;;17.88;13.77;;;;;;;1.92;71.11;95353.97;4994813;28;20078;-79
2022/04/02 01:20:01;;;;;;;17.45;13.35;;;;;;;1.90;71.25;95358.47;4995805;28;20046;-79
2022/04/02 01:22:30;;;;;;;18.90;13.27;;;;;;;1.88;71.19;95350.13;4996011;28;20053;-79
2022/04/02 01:24:57;;;;;;;17.10;15.05;;;;;;;1.84;71.25;95351.41;4995820;28;20061;-79
2022/04/02 01:27:25;;;;;;;20.90;14.75;;;;;;;1.78;71.40;95345.13;4994576;28;20054;-80
2022/04/02 01:29:59;;;;;;;16.88;14.38;;;;;;;1.78;71.67;95355.41;4994911;28;20042;-79
2022/04/02 01:32:26;;;;;;;17.55;13.10;;;;;;;1.78;71.72;95354.63;4995298;28;20060;-80
2022/04/02 01:34:54;;;;;;;17.75;14.10;;;;;;;1.76;71.77;95352.19;4995480;28;20046;-79
2022/04/02 01:37:21;;;;;;;17.58;13.70;;;;;;;1.74;71.62;95358.47;4995024;28;20061;-80
2022/04/02 01:39:50;;;;;;;19.20;15.18;;;;;;;1.69;71.46;95358.94;4995235;28;20050;-79
2022/04/02 01:42:20;;;;;;;17.30;11.80;;;;;;;1.67;71.55;95362.63;4995330;28;20046;-79
2022/04/02 01:44:51;;;;;;;15.57;12.30;;;;;;;1.65;71.61;95361.00;4995437;28;20046;-80
2022/04/02 01:47:19;;;;;;;17.80;12.45;;;;;;;1.64;71.11;95361.97;4994703;28;20046;-80
2022/04/02 01:49:47;;;;;;;13.20;11.60;;;;;;;1.62;70.88;95361.31;4995250;28;20060;-81
2022/04/02 01:52:16;;;;;;;18.40;11.23;;;;;;;1.60;71.04;95354.75;4995401;28;20049;-79
2022/04/02 01:54:44;;;;;;;15.18;11.65;;;;;;;1.61;71.37;95354.56;4995512;28;20054;-79
2022/04/02 01:57:13;;;;;;;17.90;12.85;;;;;;;1.74;72.43;95371.31;4994012;28;20060;-79
2022/04/02 01:59:44;;;;;;;14.02;10.88;;;;;;;1.85;72.48;95360.72;4994652;28;20050;-79
2022/04/02 02:02:12;;;;;;;15.75;11.90;;;;;;;1.89;71.03;95367.16;4994552;28;20134;-80
2022/04/02 02:04:39;;;;;;;16.50;10.95;;;;;;;1.89;70.42;95362.03;4994339;28;20046;-79
2022/04/02 02:07:07;;;;;;;13.75;10.50;;;;;;;1.92;70.97;95360.91;4993858;28;20492;-79
2022/04/02 02:09:35;;;;;;;16.13;11.90;;;;;;;1.97;70.71;95377.47;4994552;28;20064;-79
2022/04/02 02:12:04;;;;;;;17.92;11.25;;;;;;;1.98;70.13;95370.56;4994038;28;20050;-79
2022/04/02 02:14:33;;;;;;;22.10;11.80;;;;;;;1.94;69.96;95370.06;4993978;28;20052;-79
2022/04/02 02:17:00;;;;;;;16.70;10.55;;;;;;;1.92;69.96;95371.97;4993698;28;20050;-79
2022/04/02 02:19:28;;;;;;;14.48;10.45;;;;;;;1.99;71.11;95378.13;4994412;28;20105;-80
2022/04/02 02:21:56;;;;;;;17.23;10.88;;;;;;;2.04;70.56;95369.94;4994790;28;20050;-79
2022/04/02 02:24:24;;;;;;;16.60;10.45;;;;;;;2.04;70.16;95386.16;4994829;28;20053;-79
2022/04/02 02:26:53;;;;;;;19.52;11.52;;;;;;;2.00;70.25;95382.28;4994223;28;20114;-79
2022/04/02 02:29:20;;;;;;;16.20;12.15;;;;;;;1.99;70.11;95388.41;4994616;28;20146;-79
2022/04/02 02:31:49;;;;;;;14.23;11.88;;;;;;;1.95;70.04;95392.25;4994553;28;20050;-80
2022/04/02 02:37:02;;;;;;;16.38;11.70;;;;;;;1.88;70.36;95396.44;4993684;28;20050;-79
2022/04/02 02:39:30;;;;;;;14.20;10.45;;;;;;;1.82;70.59;95394.47;4994015;28;20056;-80
2022/04/02 02:41:58;;;;;;;14.00;11.52;;;;;;;1.80;70.38;95396.41;4993973;28;20054;-79
2022/04/02 02:44:25;;;;;;;15.82;10.90;;;;;;;1.75;70.82;95393.47;4994252;28;20046;-79
2022/04/02 02:46:54;;;;;;;13.93;10.75;;;;;;;1.76;70.92;95395.09;4993546;28;20049;-79
2022/04/02 02:49:22;;;;;;;15.85;11.10;;;;;;;1.74;70.53;95408.09;4993977;28;20050;-79
2022/04/02 02:51:49;;;;;;;14.13;10.43;;;;;;;1.69;70.64;95399.25;4992957;28;20046;-79
2022/04/02 02:54:17;;;;;;;13.27;10.95;;;;;;;1.68;70.83;95406.16;4993915;28;20058;-79
2022/04/02 02:56:44;;;;;;;17.17;10.45;;;;;;;1.68;70.61;95406.16;4993260;28;20053;-79
2022/04/02 02:59:12;;;;;;;14.32;9.90;;;;;;;1.66;71.39;95402.94;4993983;28;20054;-80
2022/04/02 03:01:39;;;;;;;14.63;11.00;;;;;;;1.67;70.58;95401.19;4993343;28;20073;-79
2022/04/02 03:04:08;;;;;;;15.07;9.85;;;;;;;1.57;70.59;95404.66;4993580;28;20104;-79
2022/04/02 03:06:37;;;;;;;15.85;10.35;;;;;;;1.56;71.75;95405.63;4992700;28;20046;-79
2022/04/02 03:09:04;;;;;;;14.45;10.38;;;;;;;1.62;71.13;95414.50;4993026;28;20511;-80
2022/04/02 03:11:32;;;;;;;15.85;10.27;;;;;;;1.65;72.30;95409.84;4994112;28;20061;-79
2022/04/02 03:14:00;;;;;;;14.80;10.13;;;;;;;1.70;71.42;95411.94;4993689;28;20052;-79
2022/04/02 03:16:27;;;;;;;18.20;11.25;;;;;;;1.75;71.23;95407.16;4992242;28;20051;-79
2022/04/02 03:18:55;;;;;;;18.67;10.50;;;;;;;1.76;71.22;95419.03;4992893;28;20050;-79
2022/04/02 03:21:24;;;;;;;13.32;9.07;;;;;;;1.75;70.63;95420.00;4993075;28;20501;-79
2022/04/02 03:23:52;;;;;;;15.50;9.93;;;;;;;1.76;71.72;95410.53;4993346;28;20518;-79
2022/04/02 03:26:19;;;;;;;19.88;9.35;;;;;;;1.80;70.65;95419.53;4992810;28;20054;-79
2022/04/02 03:28:47;;;;;;;16.98;9.45;;;;;;;1.72;69.48;95422.88;4993859;28;20050;-79
2022/04/02 03:31:15;;;;;;;13.70;9.90;;;;;;;1.67;70.13;95421.75;4993965;28;20054;-79
2022/04/02 03:33:42;;;;;;;15.38;9.43;;;;;;;1.64;70.13;95415.97;4993890;28;20497;-79
2022/04/02 03:36:10;;;;;;;18.48;8.65;;;;;;;1.67;69.93;95419.19;4993177;28;20054;-79
2022/04/02 03:38:39;;;;;;;12.45;7.75;;;;;;;1.62;69.32;95412.72;4993559;28;20402;-79
2022/04/02 03:41:07;;;;;;;13.35;8.25;;;;;;;1.60;69.68;95419.00;4993357;28;20077;-78
2022/04/02 03:43:34;;;;;;;15.07;8.52;;;;;;;1.60;69.79;95424.94;4993665;28;20050;-79
2022/04/02 03:48:43;;;;;;;17.63;8.70;;;;;;;1.61;69.62;95421.38;4992587;28;20058;-79
2022/04/02 03:51:11;;;;;;;15.88;8.63;;;;;;;1.57;69.84;95421.84;4993292;28;20564;-79
2022/04/02 03:53:45;;;;;;;12.25;8.25;;;;;;;1.55;69.60;95414.31;4993298;28;20061;-80
2022/04/02 03:56:12;;;;;;;15.88;8.10;;;;;;;1.55;69.44;95422.03;4992759;28;20452;-79
2022/04/02 03:58:40;;;;;;;24.45;9.75;;;;;;;1.52;69.66;95427.47;4993263;28;20061;-79
2022/04/02 04:01:07;;;;;;;11.05;8.23;;;;;;;1.54;70.17;95430.69;4993134;28;20072;-80
2022/04/02 04:03:35;;;;;;;11.18;8.25;;;;;;;1.57;70.05;95432.94;4995277;28;20054;-79
2022/04/02 04:06:03;;;;;;;15.68;9.93;;;;;;;1.58;69.94;95434.56;4996330;28;20511;-79
2022/04/02 04:08:30;;;;;;;17.83;8.80;;;;;;;1.55;69.63;95434.88;4996882;28;20055;-79
2022/04/02 04:10:59;;;;;;;11.23;8.35;;;;;;;1.51;69.72;95425.88;4996959;28;20420;-79
2022/04/02 04:13:27;;;;;;;14.40;9.68;;;;;;;1.49;69.92;95440.63;4997214;28;20134;-79
2022/04/02 04:15:54;;;;;;;12.60;8.55;;;;;;;1.43;70.35;95443.81;4996696;28;20130;-79
2022/04/02 04:18:23;;;;;;;16.23;8.70;;;;;;;1.43;71.11;95443.81;4997125;28;20061;-79
2022/04/02 04:20:50;;;;;;;16.73;8.55;;;;;;;1.38;70.34;95451.97;4997840;28;20058;-79
2022/04/02 04:23:18;;;;;;;17.45;9.00;;;;;;;1.31;70.20;95448.41;4996597;28;20050;-79
2022/04/02 04:25:45;;;;;;;10.70;7.40;;;;;;;1.27;70.27;95454.81;4996011;28;20052;-78
2022/04/02 04:28:14;;;;;;;11.27;8.13;;;;;;;1.22;70.27;95455.28;4996755;28;20054;-79
2022/04/02 04:30:42;;;;;;;19.60;9.07;;;;;;;1.23;70.65;95449.16;4996708;28;20054;-79
2022/04/02 04:33:10;;;;;;;11.45;8.63;;;;;;;1.30;71.25;95453.69;4996199;28;20053;-79
2022/04/02 04:35:37;;;;;;;13.27;8.85;;;;;;;1.38;71.90;95462.25;4996614;28;20497;-79
2022/04/02 04:38:05;;;;;;;13.63;7.93;;;;;;;1.49;71.96;95463.75;4995764;28;20515;-79
2022/04/02 04:40:32;;;;;;;14.50;8.98;;;;;;;1.59;72.22;95463.63;4997011;28;20054;-79
2022/04/02 04:43:00;;;;;;;13.30;7.90;;;;;;;1.65;72.25;95468.97;4996407;28;20121;-80
2022/04/02 04:45:29;;;;;;;12.82;8.13;;;;;;;1.65;71.65;95474.09;4996390;28;20050;-81
2022/04/02 04:47:59;;;;;;;12.43;7.50;;;;;;;1.63;71.12;95468.31;4995682;28;20061;-79
2022/04/02 04:50:26;;;;;;;13.85;7.30;;;;;;;1.61;70.38;95470.22;4996197;28;20173;-79
2022/04/02 04:52:54;;;;;;;10.45;7.38;;;;;;;1.59;70.62;95469.56;4996038;28;20046;-79
2022/04/02 04:55:21;;;;;;;15.02;8.38;;;;;;;1.58;70.12;95478.25;4995608;28;20054;-79
2022/04/02 04:57:49;;;;;;;15.73;8.85;;;;;;;1.51;69.63;95477.28;4998401;28;20056;-79
2022/04/02 05:00:17;;;;;;;10.98;7.10;;;;;;;1.40;69.76;95475.75;5001780;28;20061;-79
2022/04/02 05:02:47;;;;;;;13.70;7.72;;;;;;;1.35;70.29;95482.31;5017862;28;20053;-79
2022/04/02 05:05:15;;;;;;;14.95;7.65;;;;;;;1.31;69.89;95481.81;5005187;28;20460;-79
2022/04/02 05:07:56;;;;;;;9.00;7.22;;;;;;;1.23;69.94;95490.28;4998870;28;20056;-79
2022/04/02 05:10:24;;;;;;;8.32;6.65;;;;;;;1.20;70.04;95497.47;4995868;28;20427;-79
2022/04/02 05:12:52;;;;;;;11.25;6.90;;;;;;;1.11;69.75;95495.81;4996102;28;20054;-79
2022/04/02 05:15:20;;;;;;;14.25;7.03;;;;;;;1.02;69.97;95500.06;4996181;28;20054;-79
2022/04/02 05:17:49;;;;;;;11.23;6.75;;;;;;;0.95;70.40;95506.78;4995459;28;20600;-79
2022/04/02 05:20:17;;;;;;;9.68;7.00;;;;;;;0.92;70.37;95507.03;4996137;28;20054;-79
2022/04/02 05:22:46;;;;;;;9.18;6.97;;;;;;;0.88;70.35;95516.03;4995205;28;20046;-79
2022/04/02 05:25:14;;;;;;;12.48;7.38;;;;;;;0.84;70.88;95504.44;4995681;28;20054;-79
2022/04/02 05:27:43;;;;;;;9.70;6.28;;;;;;;0.86;70.74;95507.66;4994972;28;20419;-79
2022/04/02 05:30:12;;;;;;;10.05;6.82;;;;;;;0.83;70.53;95519.00;4995484;28;20054;-79
2022/04/02 05:32:40;;;;;;;10.57;7.13;;;;;;;0.82;70.36;95512.28;4995785;28;20519;-79
2022/04/02 05:35:09;;;;;;;15.48;6.82;;;;;;;0.79;70.54;95518.53;4995143;28;20054;-79
2022/04/02 05:37:44;;;;;;;10.80;6.90;;;;;;;0.77;71.22;95529.91;4994153;28;20054;-79
2022/04/02 05:40:12;;;;;;;10.93;6.88;;;;;;;0.76;70.77;95526.50;4997126;28;20065;-79
2022/04/02 05:42:41;;;;;;;8.25;7.03;;;;;;;0.79;70.96;95531.34;4997631;28;20092;-79
2022/04/02 05:45:10;;;;;;;9.93;6.85;;;;;;;0.78;70.78;95542.56;4996187;28;20051;-79
2022/04/02 05:47:42;;;;;;;11.07;7.22;;;;;;;0.78;71.11;95537.44;4994405;28;20081;-79
2022/04/02 05:50:11;;;;;;;11.73;6.85;;;;;;;0.76;70.85;95541.91;4995036;28;20512;-79
2022/04/02 05:53:00;;;;;;;11.75;6.95;;;;;;;0.77;70.94;95546.09;4995259;28;20046;-79
2022/04/02 05:55:27;;;;;;;9.52;7.68;;;;;;;0.78;71.09;95549.47;4994962;28;20452;-79
2022/04/02 05:57:55;;;;;;;12.15;7.88;;;;;;;0.81;71.82;95552.56;4994531;28;20050;-79
2022/04/02 06:00:22;;;;;;;14.82;8.95;;;;;;;0.89;71.70;95559.50;4995048;28;20077;-79
2022/04/02 06:02:54;;;;;;;14.25;8.88;;;;;;;0.92;71.69;95560.97;4994509;28;20047;-79
2022/04/02 06:05:22;;;;;;;14.15;8.02;;;;;;;0.92;71.56;95558.41;4995135;28;20432;-79
2022/04/02 06:07:50;;;;;;;12.32;8.55;;;;;;;0.97;71.92;95559.59;4994046;28;20054;-79
2022/04/02 06:10:17;;;;;;;11.65;8.73;;;;;;;1.03;71.79;95559.00;5008346;28;20504;-79
2022/04/02 06:12:47;;;;;;;13.13;8.95;;;;;;;1.06;71.65;95560.47;5011101;28;20046;-79
2022/04/02 06:15:15;;;;;;;12.35;9.23;;;;;;;1.11;72.03;95567.72;5012683;28;20046;-79
2022/04/02 06:17:42;;;;;;;14.35;8.85;;;;;;;1.16;71.57;95565.50;5009315;28;20058;-79
2022/04/02 06:20:11;;;;;;;12.07;8.95;;;;;;;1.17;71.37;95573.06;4995881;28;20061;-79
2022/04/02 06:22:40;;;;;;;14.52;9.05;;;;;;;1.16;71.85;95574.03;4995317;28;20065;-79
2022/04/02 06:25:08;;;;;;;11.02;8.45;;;;;;;1.18;71.34;95573.88;4993913;28;20145;-79
2022/04/02 06:27:41;;;;;;;9.88;6.88;;;;;;;1.13;71.33;95582.00;4993396;28;20046;-79
2022/04/02 06:30:09;;;;;;;;;;;;;;;1.15;71.87;95581.88;4995572;28;20058;-79
2022/04/02 06:32:38;;;;;;;11.05;7.43;;;;;;;1.10;71.44;95582.31;4994699;28;19921;-79
2022/04/02 06:35:06;;;;;;;10.40;7.20;;;;;;;1.06;71.55;95581.00;4994545;28;20146;-79
2022/04/02 06:37:35;;;;;;;8.93;6.70;;;;;;;1.03;71.53;95589.00;4993714;28;20065;-79
2022/04/02 06:40:05;;;;;;;8.80;7.18;;;;;;;1.04;72.09;95582.91;4993849;28;20073;-79
2022/04/02 06:42:33;;;;;;;9.27;7.28;;;;;;;1.10;71.90;95595.16;4994013;28;20064;-79
2022/04/02 06:45:01;;;;;;;10.07;6.78;;;;;;;1.14;71.68;95598.25;4994474;28;20069;-79
2022/04/02 06:47:31;;;;;;;14.10;7.07;;;;;;;1.16;71.21;95602.28;4993611;28;20058;-79
2022/04/02 06:49:59;;;;;;;7.88;6.40;;;;;;;1.18;71.05;95599.56;4994333;28;20046;-79
2022/04/02 06:52:27;;;;;;;7.95;6.72;;;;;;;1.15;70.58;95605.78;4994153;28;20101;-79
2022/04/02 06:54:54;;;;;;;7.50;5.72;;;;;;;1.16;70.73;95606.59;4994533;28;20073;-79
2022/04/02 06:57:24;;;;;;;7.03;5.97;;;;;;;1.17;70.65;95608.22;4993322;28;20518;-79
2022/04/02 06:59:51;;;;;;;8.02;5.90;;;;;;;1.19;70.77;95612.25;4994663;28;20046;-79
2022/04/02 07:02:20;;;;;;;9.25;6.53;;;;;;;1.21;70.79;95612.13;4994324;28;20057;-79
2022/04/02 07:04:47;;;;;;;10.75;6.22;;;;;;;1.23;70.79;95621.28;4994591;28;20046;-79
2022/04/02 07:07:15;;;;;;;7.25;6.03;;;;;;;1.27;70.87;95619.25;4993811;28;20046;-79
2022/04/02 07:09:43;;;;;;;12.52;6.25;;;;;;;1.34;71.03;95622.81;4994683;28;20058;-79
2022/04/02 07:12:11;;;;;;;9.88;6.45;;;;;;;1.42;70.64;95628.03;5017437;23;20110;-89
2022/04/02 07:14:41;;;;;;;9.27;6.45;;;;;;;1.42;70.51;95627.19;4999073;28;20046;-89
2022/04/02 07:17:08;;;;;;;7.88;5.88;;;;;;;1.41;70.58;95641.03;4996181;28;20058;-89
2022/04/02 07:19:38;;;;;;;7.20;6.10;;;;;;;1.43;70.33;95645.06;4996499;28;20046;-86
2022/04/02 07:22:08;;;;;;;9.73;6.15;;;;;;;1.39;69.49;95642.94;4996007;28;20053;-88
2022/04/02 07:24:39;;;;;;;8.82;6.03;;;;;;;1.34;69.79;95643.38;4995232;28;20046;-90
2022/04/02 07:27:08;;;;;;;8.68;7.03;;;;;;;1.33;70.08;95643.50;4994762;28;20077;-88
2022/04/02 07:29:36;;;;;;;8.23;6.00;;;;;;;1.33;69.75;95651.22;4995704;28;20061;-89
2022/04/02 07:32:08;;;;;;;6.68;5.90;;;;;;;1.32;69.49;95653.00;4995346;28;20082;-91
2022/04/02 07:34:36;;;;;;;8.95;6.30;;;;;;;1.30;69.19;95654.91;4995368;28;20667;-89
2022/04/02 07:37:08;;;;;;;7.47;6.55;;;;;;;1.26;69.39;95655.34;4994857;28;20106;-90
2022/04/02 07:39:44;;;;;;;11.73;6.72;;;;;;;1.24;69.67;95656.28;4999470;28;20053;-88
2022/04/02 07:42:20;;;;;;;9.23;6.72;;;;;;;1.30;69.90;95664.38;5000095;28;20057;-83
2022/04/02 07:45:03;;;;;;;9.48;6.95;;;;;;;1.40;70.14;95659.94;4999030;28;20485;-84
2022/04/02 07:47:34;;;;;;;10.85;6.75;;;;;;;1.51;70.35;95667.44;4998749;28;20050;-90
2022/04/02 07:50:04;;;;;;;10.55;5.93;;;;;;;1.57;69.55;95669.41;5000768;28;20070;-91
2022/04/02 07:52:32;;;;;;;7.38;6.60;;;;;;;1.57;69.40;95676.31;4999493;28;20057;-88
2022/04/02 07:55:07;;;;;;;10.45;6.30;;;;;;;1.62;70.06;95684.41;4999425;28;20054;-88
2022/04/02 07:57:39;;;;;;;7.68;6.65;;;;;;;1.70;69.20;95686.22;4998640;28;20142;-90
2022/04/02 08:00:10;;;;;;;8.40;6.30;;;;;;;1.72;68.57;95697.97;4999463;28;20428;-91
2022/04/02 08:02:42;;;;;;;8.20;6.85;;;;;;;1.72;68.57;95697.16;4999963;28;20068;-90
2022/04/02 08:05:12;;;;;;;7.43;6.05;;;;;;;1.67;68.30;95702.75;5000440;28;20077;-89
2022/04/02 08:07:43;;;;;;;11.15;7.05;;;;;;;1.60;68.29;95702.53;4998249;28;20046;-87
2022/04/02 08:10:13;;;;;;;6.97;6.20;;;;;;;1.57;68.29;95702.81;4998953;28;20056;-90
2022/04/02 08:12:42;;;;;;;7.72;6.47;;;;;;;1.53;68.67;95714.38;4999132;28;20467;-85
2022/04/02 08:15:13;;;;;;;7.72;6.35;;;;;;;1.53;68.72;95710.97;4998668;28;20052;-89
2022/04/02 08:17:43;;;;;;;12.77;7.72;;;;;;;1.56;68.84;95716.66;4998590;28;20516;-90
2022/04/02 08:20:15;;;;;;;9.57;7.28;;;;;;;1.58;68.69;95709.59;4999505;28;20137;-86
2022/04/02 08:22:42;;;;;;;9.75;7.25;;;;;;;1.53;68.70;95722.09;4998476;28;20584;-88
2022/04/02 08:25:11;;;;;;;14.15;7.68;;;;;;;1.57;69.96;95730.28;4998198;28;20130;-89
2022/04/02 08:27:50;;;;;;;11.00;7.20;;;;;;;1.70;69.80;95733.28;4998396;28;20062;-91
2022/04/02 08:30:28;;;;;;;9.80;7.72;;;;;;;1.82;71.44;95739.03;4999786;28;20591;-89
2022/04/02 08:33:13;;;;;;;13.48;7.85;;;;;;;1.94;69.62;95745.53;4999608;28;20077;-89
2022/04/02 08:35:53;;;;;;;9.07;6.82;;;;;;;1.99;70.60;95747.66;5001140;28;20492;-88
2022/04/02 08:38:29;;;;;;;8.68;7.47;;;;;;;2.05;70.14;95752.22;4999663;28;20060;-89
2022/04/02 08:41:42;;;;;;;9.57;7.53;;;;;;;2.14;70.97;95751.31;5000538;28;20046;-85
2022/04/02 08:44:52;;;;;;;10.40;7.00;;;;;;;2.18;68.32;95752.63;5000645;28;20504;-91
2022/04/02 08:47:49;;;;;;;7.93;6.00;;;;;;;2.17;67.92;95765.66;4999442;28;20054;-89
2022/04/02 08:50:19;;;;;;;8.45;7.13;;;;;;;2.19;67.71;95769.69;4998397;28;20575;-87
2022/04/02 08:52:52;;;;;;;12.63;7.63;;;;;;;2.15;66.96;95770.97;5001139;28;20050;-87
2022/04/02 08:55:21;;;;;;;10.48;7.35;;;;;;;2.13;67.06;95774.66;5000296;28;20058;-91
2022/04/02 08:58:09;;;;;;;9.40;7.68;;;;;;;2.15;69.74;95781.25;4999487;28;20508;-88
2022/04/02 09:00:42;;;;;;;10.63;6.72;;;;;;;2.22;67.79;95787.41;5000523;28;20137;-88
2022/04/02 09:03:38;;;;;;;14.05;6.82;;;;;;;2.21;65.69;95790.16;5000959;28;20092;-88
2022/04/02 09:06:42;;;;;;;14.13;7.22;;;;;;;2.13;66.03;95790.06;4968176;28;20109;-91
2022/04/02 09:09:22;;;;;;;8.27;7.15;;;;;;;2.15;68.69;95803.59;5000485;28;20077;-87
2022/04/02 09:12:22;;;;;;;7.95;6.63;;;;;;;2.15;65.92;95793.31;5000352;28;20057;-87
2022/04/02 09:15:19;;;;;;;8.23;6.43;;;;;;;2.11;65.34;95810.00;5000659;28;20056;-87
2022/04/02 09:18:01;;;;;;;10.50;6.15;;;;;;;2.04;65.10;95813.16;4999371;28;20057;-89
2022/04/02 09:20:54;;;;;;;10.73;6.65;;;;;;;1.98;65.87;95811.16;5000483;28;20046;-89
2022/04/02 09:23:30;;;;;;;;;;;;;;;2.00;65.94;95808.47;5000731;28;20477;-87
2022/04/02 09:26:29;;;;;;;11.10;6.47;;;;;;;1.96;65.49;95815.66;4998289;28;19921;-90
2022/04/02 09:29:12;;;;;;;11.93;6.88;;;;;;;1.94;65.45;95827.03;4999463;28;20572;-87
2022/04/02 09:31:58;;;;;;;;;;;;;;;1.96;65.81;95828.50;5001119;28;20135;-85
2022/04/02 09:34:57;;;;;;;8.07;6.93;;;;;;;1.89;66.01;95830.06;4999159;28;19926;-91
2022/04/02 09:38:02;;;;;;;11.02;6.97;;;;;;;1.92;67.39;95834.91;4998554;28;20109;-89
2022/04/02 09:40:39;;;;;;;10.27;6.78;;;;;;;1.94;66.43;95827.84;5000015;28;20057;-86
2022/04/02 09:43:18;;;;;;;7.13;5.90;;;;;;;1.89;65.53;95842.13;4999560;28;20393;-85
2022/04/02 09:45:59;;;;;;;7.63;6.38;;;;;;;1.84;66.37;95845.94;4999288;28;20050;-86
2022/04/02 09:48:39;;;;;;;12.73;6.95;;;;;;;1.84;66.03;95843.38;4998844;28;20058;-90
2022/04/02 09:51:10;;;;;;;7.50;6.10;;;;;;;1.84;66.36;95848.50;4999795;28;20050;-85
2022/04/02 09:53:46;;;;;;;9.60;6.95;;;;;;;1.85;65.97;95841.59;4998693;28;20223;-88
2022/04/02 09:56:27;;;;;;;7.93;7.00;;;;;;;1.81;67.05;95845.41;4997982;28;20046;-90
2022/04/02 09:59:04;;;;;;;7.93;6.47;;;;;;;1.83;66.87;95846.06;4998400;28;20089;-86
2022/04/02 10:01:38;;;;;;;7.30;6.43;;;;;;;1.86;66.54;95850.94;4997601;28;20060;-90
2022/04/02 10:04:22;;;;;;;7.78;6.78;;;;;;;1.89;66.32;95852.41;4998111;28;20138;-89
2022/04/02 10:06:56;;;;;;;7.63;6.78;;;;;;;1.91;66.33;95858.22;4997734;28;20054;-90
2022/04/02 10:09:28;;;;;;;8.82;6.53;;;;;;;1.91;65.79;95858.22;4998741;28;20060;-89
2022/04/02 10:11:59;;;;;;;7.35;6.28;;;;;;;1.89;65.26;95858.34;4999310;28;20055;-84
2022/04/02 10:14:28;;;;;;;7.93;6.20;;;;;;;1.86;65.68;95856.09;4999329;28;20136;-86
2022/04/02 10:16:58;;;;;;;9.57;6.28;;;;;;;1.84;65.76;95853.66;4998842;28;20050;-86
2022/04/02 10:19:29;;;;;;;8.05;5.70;;;;;;;1.82;65.32;95867.63;5000097;28;20061;-90
2022/04/02 10:21:59;;;;;;;7.43;6.63;;;;;;;1.79;65.60;95870.47;4998628;28;20078;-90
2022/04/02 10:24:27;;;;;;;9.95;6.63;;;;;;;1.76;65.78;95875.91;4997983;28;20073;-89
2022/04/02 10:26:57;;;;;;;10.05;6.82;;;;;;;1.73;66.12;95883.88;4998300;28;20065;-90
2022/04/02 10:29:35;;;;;;;9.75;7.50;;;;;;;1.77;66.55;95882.66;4997041;28;20393;-91
2022/04/02 10:32:24;;;;;;;9.10;6.80;;;;;;;1.85;66.22;95880.16;4997514;28;20515;-88
2022/04/02 10:34:56;;;;;;;8.10;6.50;;;;;;;1.87;65.63;95883.41;4997972;28;20146;-90
2022/04/02 10:37:31;;;;;;;12.10;7.45;;;;;;;1.86;65.23;95881.81;4997311;28;20512;-88
2022/04/02 10:40:05;;;;;;;8.68;6.97;;;;;;;1.85;65.62;95885.31;4997812;28;20069;-89
2022/04/02 10:42:37;;;;;;;8.68;6.53;;;;;;;1.85;66.25;95888.69;4997891;28;20141;-88
2022/04/02 10:45:07;;;;;;;9.98;7.18;;;;;;;1.84;65.68;95894.00;4997718;28;20134;-90
2022/04/02 10:47:41;;;;;;;8.50;7.25;;;;;;;1.80;65.66;95900.38;5000284;28;20054;-90
2022/04/02 10:50:10;;;;;;;9.55;7.13;;;;;;;1.79;65.69;95904.72;5002013;28;20416;-87
2022/04/02 10:52:39;;;;;;;9.13;7.03;;;;;;;1.79;66.66;95896.16;5001359;28;20046;-86
2022/04/02 10:55:07;;;;;;;9.15;7.32;;;;;;;1.80;66.11;95910.66;5000715;28;20504;-88
2022/04/02 10:57:36;;;;;;;10.27;7.25;;;;;;;1.79;65.99;95903.88;4997969;28;20057;-87
2022/04/02 11:00:07;;;;;;;8.98;7.25;;;;;;;1.78;65.93;95910.00;4997643;28;20049;-90
2022/04/02 11:02:41;;;;;;;8.82;7.28;;;;;;;1.75;65.84;95908.53;4997966;28;20066;-88
2022/04/02 11:05:11;;;;;;;9.20;7.20;;;;;;;1.68;65.63;95911.81;4998793;28;20049;-90
2022/04/02 11:07:42;;;;;;;8.38;7.45;;;;;;;1.69;66.01;95916.00;4998089;28;20054;-84
2022/04/02 11:10:13;;;;;;;9.18;7.40;;;;;;;1.76;66.97;95917.03;4997989;28;20125;-89
2022/04/02 11:12:44;;;;;;;8.27;7.47;;;;;;;1.79;65.84;95916.75;4996996;28;20066;-86
2022/04/02 11:15:14;;;;;;;9.18;7.75;;;;;;;1.78;65.88;95920.28;4998101;28;20053;-87
2022/04/02 11:17:44;;;;;;;8.80;6.95;;;;;;;1.78;65.84;95921.09;4997885;28;20056;-88
2022/04/02 11:20:14;;;;;;;10.82;8.00;;;;;;;1.77;66.73;95919.47;4997904;28;20489;-88
2022/04/02 11:23:11;;;;;;;8.20;7.32;;;;;;;1.81;65.87;95931.06;4997973;28;20053;-89
2022/04/02 11:25:45;;;;;;;8.73;7.82;;;;;;;1.81;65.56;95937.97;4997636;28;20568;-88
2022/04/02 11:28:16;;;;;;;9.73;7.20;;;;;;;1.77;65.73;95929.75;4997761;28;20284;-92
2022/04/02 11:30:46;;;;;;;8.13;7.15;;;;;;;1.78;65.57;95940.84;4998050;28;20477;-89
2022/04/02 11:33:16;;;;;;;8.70;7.55;;;;;;;1.76;65.56;95935.03;4998522;28;20422;-85
2022/04/02 11:35:47;;;;;;;9.00;6.97;;;;;;;1.71;65.41;95940.63;4997778;28;20493;-89
2022/04/02 11:38:30;;;;;;;11.35;7.75;;;;;;;1.67;66.45;95948.75;4997028;28;20556;-88
2022/04/02 11:41:04;;;;;;;9.85;7.78;;;;;;;1.71;67.12;95944.97;4997658;28;20054;-89
2022/04/02 11:43:36;;;;;;;11.38;7.65;;;;;;;1.78;65.74;95941.66;4997628;28;20054;-87
2022/04/02 11:46:06;;;;;;;8.43;7.60;;;;;;;1.79;65.37;95953.56;5003829;28;20265;-89
2022/04/02 11:48:37;;;;;;;10.15;7.65;;;;;;;1.78;65.94;95948.56;5008040;28;20091;-88
2022/04/02 11:51:19;;;;;;;11.35;7.57;;;;;;;1.78;66.70;95956.28;5003702;28;20042;-89
2022/04/02 11:53:47;;;;;;;9.30;7.47;;;;;;;1.80;65.87;95950.03;4998146;28;20058;-89
2022/04/02 11:56:27;;;;;;;11.68;8.43;;;;;;;1.79;65.69;95955.31;4998185;28;20061;-89
2022/04/02 11:58:59;;;;;;;11.07;8.43;;;;;;;1.77;65.49;95952.06;4999582;28;20058;-88
2022/04/02 12:01:27;;;;;;;10.40;8.25;;;;;;;1.77;65.83;95964.94;4999427;28;20055;-89